createdAt,value
2023-05-05T00:00:10.589Z,515.42
2023-05-05T00:00:21.584Z,515.42
2023-05-05T00:00:32.621Z,515.42
2023-05-05T00:00:44.584Z,515.36
2023-05-05T00:00:55.583Z,515.42
2023-05-05T00:01:06.586Z,515.45
2023-05-05T00:01:17.579Z,515.45
2023-05-05T00:01:28.592Z,515.42
2023-05-05T00:01:39.591Z,515.45
2023-05-05T00:01:51.583Z,515.47
2023-05-05T00:02:02.650Z,515.45
2023-05-05T00:02:13.591Z,515.50
2023-05-05T00:02:24.599Z,515.55
2023-05-05T00:02:35.763Z,515.62
2023-05-05T00:02:47.700Z,515.62
2023-05-05T00:02:59.773Z,515.66
2023-05-05T00:03:11.696Z,515.66
2023-05-05T00:03:22.612Z,515.67
2023-05-05T00:03:33.644Z,515.69
2023-05-05T00:03:45.708Z,515.74
2023-05-05T00:03:56.571Z,515.72
2023-05-05T00:04:07.642Z,515.71
2023-05-05T00:04:18.576Z,515.74
2023-05-05T00:04:29.589Z,515.78
2023-05-05T00:04:41.589Z,515.82
2023-05-05T00:04:52.583Z,515.85
2023-05-05T00:05:03.584Z,515.86
2023-05-05T00:05:14.584Z,515.84
2023-05-05T00:05:25.592Z,515.84
2023-05-05T00:05:36.591Z,515.86
2023-05-05T00:05:47.577Z,515.86
2023-05-05T00:05:59.581Z,515.85
2023-05-05T00:06:10.591Z,515.84
2023-05-05T00:06:21.570Z,515.82
2023-05-05T00:06:32.588Z,515.83
2023-05-05T00:06:44.657Z,515.87
2023-05-05T00:06:56.614Z,515.86
2023-05-05T00:07:08.593Z,515.85
2023-05-05T00:07:19.612Z,515.81
2023-05-05T00:07:31.574Z,515.84
2023-05-05T00:07:42.568Z,515.85
2023-05-05T00:07:53.565Z,515.89
2023-05-05T00:08:04.559Z,515.86
2023-05-05T00:08:15.553Z,515.85
2023-05-05T00:08:26.559Z,515.82
2023-05-05T00:08:37.546Z,515.83
2023-05-05T00:08:48.549Z,515.86
2023-05-05T00:08:59.642Z,515.86
2023-05-05T00:09:11.620Z,515.87
2023-05-05T00:09:23.587Z,515.91
2023-05-05T00:09:34.601Z,515.88
2023-05-05T00:09:45.597Z,515.87
2023-05-05T00:09:56.600Z,515.87
2023-05-05T00:10:07.957Z,515.90
2023-05-05T00:10:19.595Z,515.91
2023-05-05T00:10:31.591Z,515.91
2023-05-05T00:10:42.596Z,515.92
2023-05-05T00:10:53.619Z,515.89
2023-05-05T00:11:05.596Z,515.87
2023-05-05T00:11:16.596Z,515.86
2023-05-05T00:11:27.591Z,515.83
2023-05-05T00:11:38.598Z,515.86
2023-05-05T00:11:50.596Z,515.91
2023-05-05T00:12:01.605Z,515.89
2023-05-05T00:12:12.621Z,515.93
2023-05-05T00:12:24.593Z,515.94
2023-05-05T00:12:35.620Z,515.94
2023-05-05T00:12:47.607Z,515.96
2023-05-05T00:12:59.653Z,515.97
2023-05-05T00:13:11.743Z,515.94
2023-05-05T00:13:23.652Z,515.94
2023-05-05T00:13:35.616Z,515.93
2023-05-05T00:13:47.585Z,515.98
2023-05-05T00:13:58.580Z,516.03
2023-05-05T00:14:09.574Z,516.08
2023-05-05T00:14:20.597Z,516.11
2023-05-05T00:14:31.600Z,516.10
2023-05-05T00:14:42.601Z,516.10
2023-05-05T00:14:54.613Z,516.13
2023-05-05T00:15:06.595Z,516.11
2023-05-05T00:15:17.631Z,516.05
2023-05-05T00:15:29.589Z,516.12
2023-05-05T00:15:40.576Z,516.16
2023-05-05T00:15:51.568Z,516.17
2023-05-05T00:16:02.612Z,516.14
2023-05-05T00:16:13.605Z,516.13
2023-05-05T00:16:25.628Z,516.11
2023-05-05T00:16:37.643Z,516.15
2023-05-05T00:16:48.618Z,516.20
2023-05-05T00:17:00.615Z,516.24
2023-05-05T00:17:11.781Z,516.26
2023-05-05T00:17:22.648Z,516.32
2023-05-05T00:17:34.586Z,516.36
2023-05-05T00:17:45.615Z,516.40
2023-05-05T00:17:57.613Z,516.36
2023-05-05T00:18:09.689Z,516.41
2023-05-05T00:18:20.576Z,516.43
2023-05-05T00:18:31.584Z,516.40
2023-05-05T00:18:42.600Z,516.38
2023-05-05T00:18:53.592Z,516.36
2023-05-05T00:19:04.596Z,516.31
2023-05-05T00:19:15.581Z,516.29
2023-05-05T00:19:26.570Z,516.32
2023-05-05T00:19:37.575Z,516.36
2023-05-05T00:19:49.581Z,516.34
2023-05-05T00:20:00.592Z,516.37
2023-05-05T00:20:11.572Z,516.35
2023-05-05T00:20:22.612Z,516.35
2023-05-05T00:20:33.605Z,516.36
2023-05-05T00:20:45.577Z,516.35
2023-05-05T00:20:56.587Z,516.36
2023-05-05T00:21:07.576Z,516.36
2023-05-05T00:21:18.574Z,516.37
2023-05-05T00:21:29.592Z,516.42
2023-05-05T00:21:40.574Z,516.44
2023-05-05T00:21:51.576Z,516.45
2023-05-05T00:22:02.588Z,516.44
2023-05-05T00:22:13.592Z,516.50
2023-05-05T00:22:24.623Z,516.54
2023-05-05T00:22:36.595Z,516.60
2023-05-05T00:22:47.598Z,516.59
2023-05-05T00:22:58.607Z,516.63
2023-05-05T00:23:09.602Z,516.62
2023-05-05T00:23:20.612Z,516.66
2023-05-05T00:23:32.584Z,516.70
2023-05-05T00:23:43.588Z,516.66
2023-05-05T00:23:54.590Z,516.69
2023-05-05T00:24:05.592Z,516.74
2023-05-05T00:24:16.592Z,516.78
2023-05-05T00:24:27.596Z,516.87
2023-05-05T00:24:38.598Z,516.88
2023-05-05T00:24:49.600Z,516.91
2023-05-05T00:25:00.600Z,516.94
2023-05-05T00:25:11.583Z,516.98
2023-05-05T00:25:22.603Z,517.04
2023-05-05T00:25:34.574Z,517.02
2023-05-05T00:25:45.565Z,517.02
2023-05-05T00:25:56.556Z,517.04
2023-05-05T00:26:07.586Z,517.04
2023-05-05T00:26:18.582Z,517.06
2023-05-05T00:26:29.586Z,517.09
2023-05-05T00:26:40.575Z,517.09
2023-05-05T00:26:51.572Z,517.11
2023-05-05T00:27:02.586Z,517.13
2023-05-05T00:27:13.574Z,517.16
2023-05-05T00:27:24.562Z,517.16
2023-05-05T00:27:35.599Z,517.23
2023-05-05T00:27:47.603Z,517.23
2023-05-05T00:27:58.597Z,517.25
2023-05-05T00:28:09.588Z,517.29
2023-05-05T00:28:20.594Z,517.28
2023-05-05T00:28:31.609Z,517.31
2023-05-05T00:28:43.598Z,517.31
2023-05-05T00:28:54.590Z,517.31
2023-05-05T00:29:05.573Z,517.33
2023-05-05T00:29:16.583Z,517.34
2023-05-05T00:29:27.583Z,517.32
2023-05-05T00:29:38.589Z,517.33
2023-05-05T00:29:49.585Z,517.36
2023-05-05T00:30:00.580Z,517.37
2023-05-05T00:30:11.582Z,517.37
2023-05-05T00:30:22.569Z,517.36
2023-05-05T00:30:33.592Z,517.36
2023-05-05T00:30:44.592Z,517.37
2023-05-05T00:30:55.640Z,517.38
2023-05-05T00:31:07.639Z,517.39
2023-05-05T00:31:18.639Z,517.41
2023-05-05T00:31:30.669Z,517.45
2023-05-05T00:31:41.668Z,517.49
2023-05-05T00:31:53.585Z,517.47
2023-05-05T00:32:04.626Z,517.49
2023-05-05T00:32:16.591Z,517.51
2023-05-05T00:32:27.606Z,517.53
2023-05-05T00:32:39.621Z,517.54
2023-05-05T00:32:51.623Z,517.57
2023-05-05T00:33:02.704Z,517.59
2023-05-05T00:33:14.592Z,517.61
2023-05-05T00:33:25.580Z,517.63
2023-05-05T00:33:36.590Z,517.61
2023-05-05T00:33:47.585Z,517.66
2023-05-05T00:33:58.604Z,517.70
2023-05-05T00:34:10.579Z,517.75
2023-05-05T00:34:21.594Z,517.73
2023-05-05T00:34:32.583Z,517.78
2023-05-05T00:34:43.580Z,517.82
2023-05-05T00:34:54.565Z,517.85
2023-05-05T00:35:05.571Z,517.89
2023-05-05T00:35:16.574Z,517.90
2023-05-05T00:35:27.559Z,517.93
2023-05-05T00:35:38.574Z,517.94
2023-05-05T00:35:49.574Z,517.99
2023-05-05T00:36:00.574Z,518.01
2023-05-05T00:36:11.568Z,518.03
2023-05-05T00:36:22.569Z,518.06
2023-05-05T00:36:33.578Z,518.07
2023-05-05T00:36:44.563Z,518.05
2023-05-05T00:36:55.569Z,518.06
2023-05-05T00:37:06.583Z,518.09
2023-05-05T00:37:17.584Z,518.09
2023-05-05T00:37:28.607Z,518.13
2023-05-05T00:37:39.603Z,518.15
2023-05-05T00:37:50.584Z,518.14
2023-05-05T00:38:01.601Z,518.16
2023-05-05T00:38:12.621Z,518.18
2023-05-05T00:38:23.607Z,518.18
2023-05-05T00:38:34.588Z,518.21
2023-05-05T00:38:46.578Z,518.21
2023-05-05T00:38:57.575Z,518.24
2023-05-05T00:39:08.577Z,518.23
2023-05-05T00:39:19.578Z,518.23
2023-05-05T00:39:30.615Z,518.24
2023-05-05T00:39:41.608Z,518.24
2023-05-05T00:39:52.611Z,518.27
2023-05-05T00:40:03.608Z,518.26
2023-05-05T00:40:14.600Z,518.29
2023-05-05T00:40:25.599Z,518.34
2023-05-05T00:40:36.602Z,518.36
2023-05-05T00:40:48.631Z,518.36
2023-05-05T00:41:00.593Z,518.36
2023-05-05T00:41:11.592Z,518.40
2023-05-05T00:41:22.594Z,518.41
2023-05-05T00:41:33.607Z,518.45
2023-05-05T00:41:44.619Z,518.47
2023-05-05T00:41:56.631Z,518.52
2023-05-05T00:42:08.630Z,518.59
2023-05-05T00:42:20.594Z,518.61
2023-05-05T00:42:31.597Z,518.64
2023-05-05T00:42:42.598Z,518.67
2023-05-05T00:42:53.620Z,518.72
2023-05-05T00:43:05.581Z,518.75
2023-05-05T00:43:16.594Z,518.77
2023-05-05T00:43:27.599Z,518.81
2023-05-05T00:43:39.579Z,518.81
2023-05-05T00:43:50.585Z,518.82
2023-05-05T00:44:01.594Z,518.83
2023-05-05T00:44:12.581Z,518.85
2023-05-05T00:44:23.575Z,518.85
2023-05-05T00:44:35.586Z,518.91
2023-05-05T00:44:46.582Z,518.95
2023-05-05T00:44:57.599Z,518.93
2023-05-05T00:45:08.581Z,518.96
2023-05-05T00:45:19.580Z,518.95
2023-05-05T00:45:30.746Z,518.98
2023-05-05T00:45:41.571Z,518.99
2023-05-05T00:45:52.560Z,519.01
2023-05-05T00:46:03.711Z,519.06
2023-05-05T00:46:14.653Z,519.09
2023-05-05T00:46:26.757Z,519.07
2023-05-05T00:46:37.632Z,519.07
2023-05-05T00:46:49.637Z,519.06
2023-05-05T00:47:01.604Z,519.07
2023-05-05T00:47:13.601Z,519.06
2023-05-05T00:47:24.622Z,519.06
2023-05-05T00:47:36.661Z,519.06
2023-05-05T00:47:48.650Z,519.05
2023-05-05T00:48:00.831Z,519.04
2023-05-05T00:48:12.574Z,519.05
2023-05-05T00:48:23.580Z,519.05
2023-05-05T00:48:34.581Z,519.08
2023-05-05T00:48:45.594Z,519.09
2023-05-05T00:48:56.611Z,519.10
2023-05-05T00:49:08.608Z,519.09
2023-05-05T00:49:20.642Z,519.11
2023-05-05T00:49:32.623Z,519.11
2023-05-05T00:49:44.600Z,519.14
2023-05-05T00:49:55.594Z,519.13
2023-05-05T00:50:06.925Z,519.16
2023-05-05T00:50:17.611Z,519.15
2023-05-05T00:50:29.595Z,519.17
2023-05-05T00:50:40.609Z,519.17
2023-05-05T00:50:51.600Z,519.16
2023-05-05T00:51:02.602Z,519.19
2023-05-05T00:51:14.587Z,519.18
2023-05-05T00:51:25.587Z,519.20
2023-05-05T00:51:36.607Z,519.22
2023-05-05T00:51:47.603Z,519.23
2023-05-05T00:51:58.601Z,519.19
2023-05-05T00:52:09.614Z,519.20
2023-05-05T00:52:21.610Z,519.20
2023-05-05T00:52:32.620Z,519.21
2023-05-05T00:52:44.595Z,519.19
2023-05-05T00:52:56.238Z,519.19
2023-05-05T00:53:06.632Z,519.19
2023-05-05T00:53:17.602Z,519.20
2023-05-05T00:53:28.603Z,519.21
2023-05-05T00:53:40.580Z,519.21
2023-05-05T00:53:51.576Z,519.19
2023-05-05T00:54:02.574Z,519.20
2023-05-05T00:54:13.621Z,519.23
2023-05-05T00:54:24.613Z,519.23
2023-05-05T00:54:35.620Z,519.21
2023-05-05T00:54:47.588Z,519.20
2023-05-05T00:54:58.585Z,519.20
2023-05-05T00:55:09.586Z,519.22
2023-05-05T00:55:20.583Z,519.21
2023-05-05T00:55:31.576Z,519.21
2023-05-05T00:55:42.584Z,519.22
2023-05-05T00:55:53.583Z,519.24
2023-05-05T00:56:04.595Z,519.25
2023-05-05T00:56:15.573Z,519.24
2023-05-05T00:56:26.591Z,519.27
2023-05-05T00:56:38.589Z,519.25
2023-05-05T00:56:49.596Z,519.27
2023-05-05T00:57:00.586Z,519.26
2023-05-05T00:57:11.589Z,519.27
2023-05-05T00:57:22.601Z,519.28
2023-05-05T00:57:33.601Z,519.24
2023-05-05T00:57:45.615Z,519.25
2023-05-05T00:57:57.609Z,519.25
2023-05-05T00:58:08.603Z,519.23
2023-05-05T00:58:19.617Z,519.22
2023-05-05T00:58:31.592Z,519.22
2023-05-05T00:58:42.577Z,519.21
2023-05-05T00:58:53.576Z,519.22
2023-05-05T00:59:04.574Z,519.22
2023-05-05T00:59:15.556Z,519.22
2023-05-05T00:59:26.552Z,519.22
2023-05-05T00:59:37.624Z,519.22
2023-05-05T00:59:49.626Z,519.25
2023-05-05T01:00:01.639Z,519.26
2023-05-05T01:00:13.627Z,519.31
2023-05-05T01:00:25.591Z,519.34
2023-05-05T01:00:36.578Z,519.38
2023-05-05T01:00:47.569Z,519.36
2023-05-05T01:00:58.591Z,519.39
2023-05-05T01:01:09.609Z,519.45
2023-05-05T01:01:20.584Z,519.47
2023-05-05T01:01:31.637Z,519.55
2023-05-05T01:01:43.731Z,519.56
2023-05-05T01:01:55.621Z,519.59
2023-05-05T01:02:07.587Z,519.62
2023-05-05T01:02:18.582Z,519.67
2023-05-05T01:02:29.700Z,519.68
2023-05-05T01:02:41.651Z,519.70
2023-05-05T01:02:53.714Z,519.77
2023-05-05T01:03:05.704Z,519.83
2023-05-05T01:03:17.669Z,519.84
2023-05-05T01:03:29.655Z,519.83
2023-05-05T01:03:40.741Z,519.82
2023-05-05T01:03:52.777Z,519.86
2023-05-05T01:04:03.698Z,519.87
2023-05-05T01:04:15.635Z,519.89
2023-05-05T01:04:27.593Z,519.95
2023-05-05T01:04:38.594Z,519.97
2023-05-05T01:04:49.588Z,520.02
2023-05-05T01:05:00.604Z,520.04
2023-05-05T01:05:11.621Z,520.09
2023-05-05T01:05:23.591Z,520.10
2023-05-05T01:05:34.599Z,520.11
2023-05-05T01:05:45.599Z,520.12
2023-05-05T01:05:56.586Z,520.16
2023-05-05T01:06:07.595Z,520.20
2023-05-05T01:06:18.583Z,520.21
2023-05-05T01:06:29.580Z,520.20
2023-05-05T01:06:40.568Z,520.20
2023-05-05T01:06:51.547Z,520.24
2023-05-05T01:07:02.645Z,520.19
2023-05-05T01:07:14.620Z,520.22
2023-05-05T01:07:25.611Z,520.23
2023-05-05T01:07:37.622Z,520.25
2023-05-05T01:07:49.595Z,520.26
2023-05-05T01:08:00.606Z,520.28
2023-05-05T01:08:12.597Z,520.29
2023-05-05T01:08:23.586Z,520.31
2023-05-05T01:08:34.584Z,520.28
2023-05-05T01:08:45.595Z,520.28
2023-05-05T01:08:56.595Z,520.30
2023-05-05T01:09:07.643Z,520.30
2023-05-05T01:09:19.599Z,520.31
2023-05-05T01:09:31.579Z,520.34
2023-05-05T01:09:42.562Z,520.34
2023-05-05T01:10:04.206Z,520.34
2023-05-05T01:10:18.929Z,520.37
2023-05-05T01:10:20.177Z,520.38
2023-05-05T01:10:27.821Z,520.37
2023-05-05T01:10:39.629Z,520.40
2023-05-05T01:10:51.596Z,520.43
2023-05-05T01:11:02.566Z,520.46
2023-05-05T01:11:13.561Z,520.46
2023-05-05T01:11:24.568Z,520.49
2023-05-05T01:11:35.566Z,520.48
2023-05-05T01:11:46.597Z,520.48
2023-05-05T01:11:57.602Z,520.50
2023-05-05T01:12:08.595Z,520.51
2023-05-05T01:12:19.571Z,520.53
2023-05-05T01:12:30.577Z,520.50
2023-05-05T01:12:41.636Z,520.48
2023-05-05T01:12:53.651Z,520.46
2023-05-05T01:13:04.691Z,520.43
2023-05-05T01:13:16.599Z,520.44
2023-05-05T01:13:27.605Z,520.47
2023-05-05T01:13:38.580Z,520.48
2023-05-05T01:13:49.585Z,520.51
2023-05-05T01:14:00.573Z,520.52
2023-05-05T01:14:11.592Z,520.50
2023-05-05T01:14:22.595Z,520.52
2023-05-05T01:14:33.593Z,520.53
2023-05-05T01:14:44.581Z,520.56
2023-05-05T01:14:55.584Z,520.58
2023-05-05T01:15:07.579Z,520.57
2023-05-05T01:15:18.570Z,520.57
2023-05-05T01:15:29.577Z,520.58
2023-05-05T01:15:40.584Z,520.58
2023-05-05T01:15:51.630Z,520.58
2023-05-05T01:16:02.601Z,520.58
2023-05-05T01:16:14.625Z,520.62
2023-05-05T01:16:26.635Z,520.61
2023-05-05T01:16:38.700Z,520.65
2023-05-05T01:16:50.589Z,520.70
2023-05-05T01:17:01.604Z,520.71
2023-05-05T01:17:12.613Z,520.74
2023-05-05T01:17:24.694Z,520.71
2023-05-05T01:17:35.600Z,520.72
2023-05-05T01:17:46.653Z,520.71
2023-05-05T01:17:58.680Z,520.71
2023-05-05T01:18:10.570Z,520.71
2023-05-05T01:18:21.572Z,520.74
2023-05-05T01:18:32.594Z,520.74
2023-05-05T01:18:43.579Z,520.76
2023-05-05T01:18:54.570Z,520.80
2023-05-05T01:19:05.543Z,520.78
2023-05-05T01:19:16.608Z,520.78
2023-05-05T01:19:27.588Z,520.81
2023-05-05T01:19:38.590Z,520.86
2023-05-05T01:19:49.595Z,520.91
2023-05-05T01:20:00.584Z,520.93
2023-05-05T01:20:11.588Z,520.98
2023-05-05T01:20:22.587Z,520.99
2023-05-05T01:20:33.588Z,521.03
2023-05-05T01:20:44.589Z,521.03
2023-05-05T01:20:55.577Z,521.07
2023-05-05T01:21:06.582Z,521.10
2023-05-05T01:21:17.569Z,521.13
2023-05-05T01:21:28.565Z,521.15
2023-05-05T01:21:39.593Z,521.18
2023-05-05T01:21:50.589Z,521.19
2023-05-05T01:22:02.574Z,521.26
2023-05-05T01:22:13.602Z,521.28
2023-05-05T01:22:24.602Z,521.31
2023-05-05T01:22:35.593Z,521.30
2023-05-05T01:22:46.580Z,521.31
2023-05-05T01:22:57.574Z,521.32
2023-05-05T01:23:08.567Z,521.35
2023-05-05T01:23:20.586Z,521.35
2023-05-05T01:23:32.575Z,521.35
2023-05-05T01:23:43.590Z,521.37
2023-05-05T01:23:54.584Z,521.38
2023-05-05T01:24:05.574Z,521.36
2023-05-05T01:24:16.564Z,521.38
2023-05-05T01:24:27.587Z,521.39
2023-05-05T01:24:38.584Z,521.40
2023-05-05T01:24:49.599Z,521.40
2023-05-05T01:25:00.587Z,521.39
2023-05-05T01:25:11.567Z,521.44
2023-05-05T01:25:22.567Z,521.49
2023-05-05T01:25:33.607Z,521.48
2023-05-05T01:25:45.599Z,521.49
2023-05-05T01:25:56.607Z,521.50
2023-05-05T01:26:07.593Z,521.53
2023-05-05T01:26:18.587Z,521.55
2023-05-05T01:26:29.571Z,521.54
2023-05-05T01:26:40.587Z,521.55
2023-05-05T01:26:52.599Z,521.56
2023-05-05T01:27:03.583Z,521.54
2023-05-05T01:27:14.604Z,521.53
2023-05-05T01:27:26.587Z,521.55
2023-05-05T01:27:38.589Z,521.56
2023-05-05T01:27:49.589Z,521.56
2023-05-05T01:28:00.598Z,521.57
2023-05-05T01:28:11.576Z,521.56
2023-05-05T01:28:22.587Z,521.55
2023-05-05T01:28:33.566Z,521.52
2023-05-05T01:28:44.572Z,521.53
2023-05-05T01:28:55.574Z,521.51
2023-05-05T01:29:06.560Z,521.51
2023-05-05T01:29:17.564Z,521.52
2023-05-05T01:29:28.561Z,521.51
2023-05-05T01:29:39.569Z,521.52
2023-05-05T01:29:50.572Z,521.56
2023-05-05T01:30:01.603Z,521.54
2023-05-05T01:30:12.624Z,521.52
2023-05-05T01:30:24.571Z,521.52
2023-05-05T01:30:35.572Z,521.53
2023-05-05T01:30:46.583Z,521.54
2023-05-05T01:30:57.588Z,521.53
2023-05-05T01:31:08.673Z,521.51
2023-05-05T01:31:19.650Z,521.52
2023-05-05T01:31:31.651Z,521.50
2023-05-05T01:31:43.691Z,521.52
2023-05-05T01:31:55.596Z,521.51
2023-05-05T01:32:06.624Z,521.51
2023-05-05T01:32:17.606Z,521.54
2023-05-05T01:32:28.663Z,521.53
2023-05-05T01:32:39.610Z,521.57
2023-05-05T01:32:50.633Z,521.57
2023-05-05T01:33:02.601Z,521.59
2023-05-05T01:33:13.592Z,521.59
2023-05-05T01:33:24.570Z,521.60
2023-05-05T01:33:35.563Z,521.62
2023-05-05T01:33:46.560Z,521.60
2023-05-05T01:33:57.653Z,521.62
2023-05-05T01:34:09.726Z,521.63
2023-05-05T01:34:21.598Z,521.62
2023-05-05T01:34:32.614Z,521.62
2023-05-05T01:34:43.596Z,521.65
2023-05-05T01:34:54.609Z,521.69
2023-05-05T01:35:05.595Z,521.74
2023-05-05T01:35:16.582Z,521.73
2023-05-05T01:35:27.576Z,521.70
2023-05-05T01:35:38.553Z,521.70
2023-05-05T01:35:49.565Z,521.71
2023-05-05T01:36:00.572Z,521.68
2023-05-05T01:36:11.568Z,521.69
2023-05-05T01:36:22.559Z,521.68
2023-05-05T01:36:33.580Z,521.67
2023-05-05T01:36:44.593Z,521.69
2023-05-05T01:36:55.593Z,521.71
2023-05-05T01:37:06.596Z,521.74
2023-05-05T01:37:18.583Z,521.75
2023-05-05T01:37:29.576Z,521.76
2023-05-05T01:37:40.593Z,521.75
2023-05-05T01:37:51.585Z,521.79
2023-05-05T01:38:03.614Z,521.77
2023-05-05T01:38:15.585Z,521.75
2023-05-05T01:38:26.581Z,521.75
2023-05-05T01:38:37.611Z,521.74
2023-05-05T01:38:49.576Z,521.75
2023-05-05T01:39:00.602Z,521.76
2023-05-05T01:39:11.582Z,521.75
2023-05-05T01:39:22.561Z,521.80
2023-05-05T01:39:33.577Z,521.81
2023-05-05T01:39:44.556Z,521.79
2023-05-05T01:39:55.549Z,521.79
2023-05-05T01:40:06.867Z,521.84
2023-05-05T01:40:17.545Z,521.82
2023-05-05T01:40:28.552Z,521.85
2023-05-05T01:40:39.560Z,521.86
2023-05-05T01:40:50.599Z,521.87
2023-05-05T01:41:01.590Z,521.90
2023-05-05T01:41:12.564Z,521.90
2023-05-05T01:41:23.563Z,521.94
2023-05-05T01:41:34.585Z,521.91
2023-05-05T01:41:45.578Z,521.96
2023-05-05T01:41:56.602Z,521.97
2023-05-05T01:42:07.596Z,521.97
2023-05-05T01:42:19.587Z,521.98
2023-05-05T01:42:30.579Z,522.01
2023-05-05T01:42:41.621Z,522.01
2023-05-05T01:42:53.619Z,522.00
2023-05-05T01:43:05.586Z,522.03
2023-05-05T01:43:16.572Z,522.03
2023-05-05T01:43:27.573Z,522.06
2023-05-05T01:43:38.577Z,522.09
2023-05-05T01:43:49.563Z,522.14
2023-05-05T01:44:00.546Z,522.14
2023-05-05T01:44:11.558Z,522.15
2023-05-05T01:44:22.543Z,522.12
2023-05-05T01:44:33.642Z,522.15
2023-05-05T01:44:45.648Z,522.13
2023-05-05T01:44:57.550Z,522.12
2023-05-05T01:45:08.578Z,522.11
2023-05-05T01:45:19.558Z,522.11
2023-05-05T01:45:30.568Z,522.08
2023-05-05T01:45:41.572Z,522.08
2023-05-05T01:45:52.634Z,522.06
2023-05-05T01:46:04.659Z,522.05
2023-05-05T01:46:15.701Z,522.04
2023-05-05T01:46:26.548Z,522.03
2023-05-05T01:46:37.552Z,522.04
2023-05-05T01:46:48.641Z,522.03
2023-05-05T01:47:00.633Z,521.97
2023-05-05T01:47:12.578Z,521.94
2023-05-05T01:47:23.584Z,521.95
2023-05-05T01:47:34.575Z,521.97
2023-05-05T01:47:45.674Z,521.98
2023-05-05T01:47:56.602Z,521.94
2023-05-05T01:48:07.611Z,521.93
2023-05-05T01:48:18.581Z,521.91
2023-05-05T01:48:29.582Z,521.91
2023-05-05T01:48:42.290Z,521.90
2023-05-05T01:48:51.554Z,521.88
2023-05-05T01:49:02.569Z,521.90
2023-05-05T01:49:13.580Z,521.91
2023-05-05T01:49:24.598Z,521.87
2023-05-05T01:49:35.611Z,521.88
2023-05-05T01:49:47.568Z,521.87
2023-05-05T01:49:58.587Z,521.86
2023-05-05T01:50:09.798Z,521.86
2023-05-05T01:50:21.601Z,521.88
2023-05-05T01:50:32.598Z,521.89
2023-05-05T01:50:43.582Z,521.88
2023-05-05T01:50:54.575Z,521.88
2023-05-05T01:51:05.570Z,521.91
2023-05-05T01:51:16.564Z,521.89
2023-05-05T01:51:27.587Z,521.91
2023-05-05T01:51:38.594Z,521.95
2023-05-05T01:51:49.568Z,521.92
2023-05-05T01:52:00.569Z,521.93
2023-05-05T01:52:11.573Z,521.94
2023-05-05T01:52:22.570Z,521.93
2023-05-05T01:52:33.565Z,521.94
2023-05-05T01:52:44.549Z,521.96
2023-05-05T01:52:56.214Z,521.96
2023-05-05T01:53:06.548Z,521.94
2023-05-05T01:53:17.620Z,521.96
2023-05-05T01:53:29.592Z,521.95
2023-05-05T01:53:40.601Z,521.92
2023-05-05T01:53:51.594Z,521.95
2023-05-05T01:54:02.576Z,521.97
2023-05-05T01:54:13.596Z,521.95
2023-05-05T01:54:24.589Z,521.96
2023-05-05T01:54:36.593Z,522.00
2023-05-05T01:54:48.602Z,522.00
2023-05-05T01:55:00.592Z,522.01
2023-05-05T01:55:11.583Z,522.04
2023-05-05T01:55:22.567Z,522.02
2023-05-05T01:55:33.581Z,522.04
2023-05-05T01:55:44.578Z,522.06
2023-05-05T01:55:55.569Z,522.08
2023-05-05T01:56:06.570Z,522.06
2023-05-05T01:56:17.583Z,522.06
2023-05-05T01:56:28.582Z,522.03
2023-05-05T01:56:40.582Z,522.09
2023-05-05T01:56:51.584Z,522.13
2023-05-05T01:57:02.617Z,522.14
2023-05-05T01:57:13.614Z,522.16
2023-05-05T01:57:25.577Z,522.16
2023-05-05T01:57:36.597Z,522.17
2023-05-05T01:57:47.593Z,522.19
2023-05-05T01:57:58.624Z,522.19
2023-05-05T01:58:10.582Z,522.18
2023-05-05T01:58:21.574Z,522.22
2023-05-05T01:58:32.619Z,522.27
2023-05-05T01:58:43.603Z,522.28
2023-05-05T01:58:54.613Z,522.28
2023-05-05T01:59:06.585Z,522.32
2023-05-05T01:59:17.612Z,522.33
2023-05-05T01:59:29.575Z,522.34
2023-05-05T01:59:40.616Z,522.34
2023-05-05T01:59:52.589Z,522.32
2023-05-05T02:00:03.624Z,522.32
2023-05-05T02:00:15.603Z,522.32
2023-05-05T02:00:27.574Z,522.33
2023-05-05T02:00:39.585Z,522.32
2023-05-05T02:00:50.571Z,522.34
2023-05-05T02:01:02.594Z,522.32
2023-05-05T02:01:14.601Z,522.35
2023-05-05T02:01:26.673Z,522.36
2023-05-05T02:01:37.707Z,522.36
2023-05-05T02:01:48.597Z,522.35
2023-05-05T02:02:00.669Z,522.38
2023-05-05T02:02:12.631Z,522.42
2023-05-05T02:02:24.677Z,522.40
2023-05-05T02:02:36.704Z,522.38
2023-05-05T02:02:48.690Z,522.40
2023-05-05T02:02:59.767Z,522.40
2023-05-05T02:03:11.708Z,522.42
2023-05-05T02:03:23.630Z,522.42
2023-05-05T02:03:35.680Z,522.45
2023-05-05T02:03:47.559Z,522.43
2023-05-05T02:03:58.559Z,522.39
2023-05-05T02:04:09.550Z,522.41
2023-05-05T02:04:20.549Z,522.44
2023-05-05T02:04:31.557Z,522.44
2023-05-05T02:04:42.626Z,522.45
2023-05-05T02:04:54.620Z,522.46
2023-05-05T02:05:06.590Z,522.46
2023-05-05T02:05:17.601Z,522.43
2023-05-05T02:05:29.574Z,522.43
2023-05-05T02:05:40.585Z,522.44
2023-05-05T02:05:51.595Z,522.48
2023-05-05T02:06:02.611Z,522.46
2023-05-05T02:06:13.615Z,522.46
2023-05-05T02:06:25.599Z,522.48
2023-05-05T02:06:36.587Z,522.49
2023-05-05T02:06:47.619Z,522.47
2023-05-05T02:06:58.610Z,522.45
2023-05-05T02:07:09.610Z,522.47
2023-05-05T02:07:20.611Z,522.44
2023-05-05T02:07:31.603Z,522.45
2023-05-05T02:07:43.590Z,522.45
2023-05-05T02:07:54.580Z,522.46
2023-05-05T02:08:05.571Z,522.49
2023-05-05T02:08:17.593Z,522.47
2023-05-05T02:08:28.577Z,522.47
2023-05-05T02:08:39.582Z,522.48
2023-05-05T02:08:51.580Z,522.48
2023-05-05T02:09:02.565Z,522.48
2023-05-05T02:09:14.575Z,522.50
2023-05-05T02:09:25.573Z,522.48
2023-05-05T02:09:37.587Z,522.50
2023-05-05T02:09:48.589Z,522.50
2023-05-05T02:10:00.615Z,522.53
2023-05-05T02:10:12.570Z,522.54
2023-05-05T02:10:23.573Z,522.55
2023-05-05T02:10:34.573Z,522.54
2023-05-05T02:10:45.573Z,522.52
2023-05-05T02:10:56.577Z,522.52
2023-05-05T02:11:07.584Z,522.52
2023-05-05T02:11:18.599Z,522.50
2023-05-05T02:11:29.604Z,522.52
2023-05-05T02:11:40.613Z,522.55
2023-05-05T02:11:52.709Z,522.55
2023-05-05T02:12:04.585Z,522.53
2023-05-05T02:12:16.601Z,522.49
2023-05-05T02:12:28.595Z,522.45
2023-05-05T02:12:39.661Z,522.47
2023-05-05T02:12:50.601Z,522.53
2023-05-05T02:13:01.624Z,522.54
2023-05-05T02:13:13.700Z,522.58
2023-05-05T02:13:25.666Z,522.56
2023-05-05T02:13:36.656Z,522.59
2023-05-05T02:13:47.636Z,522.59
2023-05-05T02:13:58.611Z,522.61
2023-05-05T02:14:10.582Z,522.64
2023-05-05T02:14:21.592Z,522.64
2023-05-05T02:14:32.577Z,522.65
2023-05-05T02:14:43.576Z,522.67
2023-05-05T02:14:54.573Z,522.64
2023-05-05T02:15:05.600Z,522.63
2023-05-05T02:15:16.619Z,522.62
2023-05-05T02:15:27.605Z,522.60
2023-05-05T02:15:39.607Z,522.61
2023-05-05T02:15:50.625Z,522.59
2023-05-05T02:16:02.679Z,522.56
2023-05-05T02:16:13.723Z,522.57
2023-05-05T02:16:25.610Z,522.53
2023-05-05T02:16:37.581Z,522.53
2023-05-05T02:16:48.577Z,522.53
2023-05-05T02:16:59.579Z,522.52
2023-05-05T02:17:10.574Z,522.51
2023-05-05T02:17:21.575Z,522.55
2023-05-05T02:17:32.577Z,522.55
2023-05-05T02:17:43.646Z,522.56
2023-05-05T02:17:54.571Z,522.59
2023-05-05T02:18:05.625Z,522.58
2023-05-05T02:18:16.560Z,522.57
2023-05-05T02:18:27.552Z,522.61
2023-05-05T02:18:38.548Z,522.56
2023-05-05T02:18:49.553Z,522.55
2023-05-05T02:19:00.550Z,522.57
2023-05-05T02:19:11.636Z,522.57
2023-05-05T02:19:23.583Z,522.60
2023-05-05T02:19:34.586Z,522.60
2023-05-05T02:19:45.584Z,522.64
2023-05-05T02:19:56.570Z,522.63
2023-05-05T02:20:07.813Z,522.61
2023-05-05T02:20:18.554Z,522.62
2023-05-05T02:20:29.647Z,522.66